createdAt,value
2018-05-26T00:01:52.609Z,102086.69
2018-05-26T00:04:18.408Z,102077.34
2018-05-26T00:06:44.157Z,102080.17
2018-05-26T00:09:10.333Z,102082.09
2018-05-26T00:11:36.092Z,102086.95
2018-05-26T00:14:01.837Z,102078.61
2018-05-26T00:16:27.601Z,102078.16
2018-05-26T00:18:53.753Z,102080.44
2018-05-26T00:21:19.499Z,102077.78
2018-05-26T00:23:45.223Z,102085.69
2018-05-26T00:26:11.919Z,102083.98
2018-05-26T00:28:38.120Z,102082.72
2018-05-26T00:31:04.371Z,102084.41
2018-05-26T00:33:30.122Z,102093.38
2018-05-26T00:35:56.652Z,102087.16
2018-05-26T00:38:22.399Z,102088.05
2018-05-26T00:40:48.224Z,102090.75
2018-05-26T00:43:13.951Z,102094.66
2018-05-26T00:45:39.913Z,102098.09
2018-05-26T00:48:05.649Z,102103.69
2018-05-26T00:50:31.380Z,102100.09
2018-05-26T00:52:57.116Z,102103.86
2018-05-26T00:55:22.851Z,102102.22
2018-05-26T00:57:48.576Z,102098.16
2018-05-26T01:00:14.493Z,102091.08
2018-05-26T01:02:40.236Z,102092.52
2018-05-26T01:05:05.967Z,102094.38
2018-05-26T01:07:32.413Z,102092.29
2018-05-26T01:09:58.152Z,102089.23
2018-05-26T01:12:23.886Z,102093.59
2018-05-26T01:14:49.691Z,102089.62
2018-05-26T01:17:15.440Z,102093.92
2018-05-26T01:19:41.177Z,102095.38
2018-05-26T01:22:06.929Z,102099.31
2018-05-26T01:24:32.665Z,102098.88
2018-05-26T01:26:58.399Z,102095.75
2018-05-26T01:29:24.679Z,102099.31
2018-05-26T01:31:50.448Z,102094.97
2018-05-26T01:34:16.603Z,102089.70
2018-05-26T01:36:42.890Z,102080.02
2018-05-26T01:39:08.648Z,102077.39
2018-05-26T01:41:34.398Z,102076.89
2018-05-26T01:44:00.134Z,102086.17
2018-05-26T01:46:25.868Z,102074.70
2018-05-26T01:48:51.612Z,102062.80
2018-05-26T01:51:17.360Z,102073.02
2018-05-26T01:53:43.542Z,102076.50
2018-05-26T01:56:09.329Z,102069.03
2018-05-26T01:58:35.073Z,102071.25
2018-05-26T02:01:00.808Z,102070.83
2018-05-26T02:03:26.566Z,102073.92
2018-05-26T02:05:52.301Z,102077.83
2018-05-26T02:08:18.032Z,102073.00
2018-05-26T02:10:44.341Z,102078.73
2018-05-26T02:13:10.540Z,102076.09
2018-05-26T02:15:36.825Z,102076.54
2018-05-26T02:18:03.948Z,102082.30
2018-05-26T02:20:29.697Z,102079.67
2018-05-26T02:22:55.434Z,102080.51
2018-05-26T02:25:21.377Z,102075.23
2018-05-26T02:27:47.122Z,102075.20
2018-05-26T02:30:12.865Z,102073.45
2018-05-26T02:32:38.597Z,102069.84
2018-05-26T02:35:04.321Z,102068.47
2018-05-26T02:37:30.174Z,102076.78
2018-05-26T02:39:56.100Z,102083.91
2018-05-26T02:42:21.843Z,102079.03
2018-05-26T02:44:48.100Z,102082.90
2018-05-26T02:47:13.868Z,102085.56
2018-05-26T02:49:39.608Z,102085.53
2018-05-26T02:52:05.357Z,102080.67
2018-05-26T02:54:31.520Z,102083.98
2018-05-26T02:56:57.497Z,102079.17
2018-05-26T02:59:23.225Z,102085.38
2018-05-26T03:01:48.956Z,102082.20
2018-05-26T03:04:22.876Z,102075.97
2018-05-26T03:06:54.736Z,102076.73
2018-05-26T03:09:26.753Z,102079.84
2018-05-26T03:11:58.740Z,102081.54
2018-05-26T03:14:30.543Z,102084.66
2018-05-26T03:16:57.104Z,102074.02
2018-05-26T03:19:22.847Z,102079.66
2018-05-26T03:21:48.572Z,102081.34
2018-05-26T03:24:14.320Z,102081.25
2018-05-26T03:26:40.067Z,102074.07
2018-05-26T03:29:05.792Z,102073.04
2018-05-26T03:31:31.525Z,102078.45
2018-05-26T03:33:57.255Z,102074.95
2018-05-26T03:36:23.020Z,102078.07
2018-05-26T03:38:48.723Z,102073.23
2018-05-26T03:41:14.459Z,102074.43
2018-05-26T03:43:40.198Z,102081.45
2018-05-26T03:46:05.940Z,102079.72
2018-05-26T03:48:31.680Z,102079.20
2018-05-26T03:50:57.403Z,102085.72
2018-05-26T03:53:23.138Z,102086.20
2018-05-26T03:56:01.288Z,102083.27
2018-05-26T03:58:39.607Z,102089.02
2018-05-26T04:01:05.356Z,102093.03
2018-05-26T04:03:31.101Z,102092.64
2018-05-26T04:05:56.876Z,102095.94
2018-05-26T04:08:22.564Z,102094.52
2018-05-26T04:10:48.292Z,102095.41
2018-05-26T04:13:14.026Z,102099.14
2018-05-26T04:15:39.765Z,102105.11
2018-05-26T04:18:05.539Z,102102.24
2018-05-26T04:20:31.318Z,102101.35
2018-05-26T04:22:57.049Z,102101.34
2018-05-26T04:25:22.812Z,102106.45
2018-05-26T04:27:48.550Z,102104.63
2018-05-26T04:30:14.291Z,102110.86
2018-05-26T04:32:40.031Z,102109.41
2018-05-26T04:35:05.784Z,102107.11
2018-05-26T04:37:31.514Z,102104.84
2018-05-26T04:39:57.260Z,102108.83
2018-05-26T04:42:23.016Z,102111.78
2018-05-26T04:44:48.777Z,102105.00
2018-05-26T04:47:14.512Z,102114.84
2018-05-26T04:49:40.260Z,102113.88
2018-05-26T04:52:05.996Z,102109.64
2018-05-26T04:54:31.736Z,102104.91
2018-05-26T04:56:57.472Z,102105.31
2018-05-26T04:59:23.215Z,102105.09
2018-05-26T05:01:48.964Z,102103.77
2018-05-26T05:04:14.721Z,102108.98
2018-05-26T05:06:40.472Z,102103.53
2018-05-26T05:09:06.222Z,102109.23
2018-05-26T05:11:31.983Z,102114.11
2018-05-26T05:13:57.738Z,102116.80
2018-05-26T05:16:23.483Z,102114.61
2018-05-26T05:18:49.246Z,102113.55
2018-05-26T05:21:14.990Z,102113.80
2018-05-26T05:23:47.719Z,102118.05
2018-05-26T05:26:13.472Z,102111.27
2018-05-26T05:28:39.217Z,102123.02
2018-05-26T05:31:04.951Z,102128.37
2018-05-26T05:33:30.698Z,102127.20
2018-05-26T05:35:56.432Z,102133.56
2018-05-26T05:38:22.184Z,102125.41
2018-05-26T05:40:47.927Z,102131.64
2018-05-26T05:43:13.681Z,102131.56
2018-05-26T05:45:39.437Z,102131.08
2018-05-26T05:48:05.172Z,102134.05
2018-05-26T05:50:30.932Z,102128.34
2018-05-26T05:52:56.659Z,102124.70
2018-05-26T05:55:22.408Z,102125.83
2018-05-26T05:57:48.163Z,102128.50
2018-05-26T06:00:13.923Z,102132.00
2018-05-26T06:02:39.665Z,102134.63
2018-05-26T06:05:05.420Z,102132.16
2018-05-26T06:07:31.176Z,102132.02
2018-05-26T06:09:56.919Z,102126.60
2018-05-26T06:12:22.644Z,102130.61
2018-05-26T06:14:48.389Z,102133.23
2018-05-26T06:17:14.146Z,102136.00
2018-05-26T06:19:39.888Z,102139.02
2018-05-26T06:22:05.619Z,102144.05
2018-05-26T06:24:31.364Z,102143.29
2018-05-26T06:26:57.093Z,102146.45
2018-05-26T06:29:22.828Z,102143.69
2018-05-26T06:31:48.576Z,102143.28
2018-05-26T06:34:14.287Z,102144.00
2018-05-26T06:36:40.036Z,102143.70
2018-05-26T06:39:05.777Z,102147.23
2018-05-26T06:41:31.512Z,102147.12
2018-05-26T06:43:57.252Z,102146.75
2018-05-26T06:46:23.000Z,102146.22
2018-05-26T06:48:48.727Z,102143.92
2018-05-26T06:51:14.531Z,102141.84
2018-05-26T06:53:40.200Z,102145.86
2018-05-26T06:56:05.932Z,102145.88
2018-05-26T06:58:31.664Z,102153.24
2018-05-26T07:00:57.412Z,102145.23
2018-05-26T07:03:23.135Z,102147.70
2018-05-26T07:05:48.898Z,102138.17
2018-05-26T07:08:14.639Z,102144.64
2018-05-26T07:10:40.390Z,102134.94
2018-05-26T07:13:06.121Z,102143.39
2018-05-26T07:15:31.866Z,102139.61
2018-05-26T07:17:57.601Z,102138.82
2018-05-26T07:20:23.350Z,102141.58
2018-05-26T07:22:49.081Z,102146.73
2018-05-26T07:25:14.833Z,102148.95
2018-05-26T07:27:40.559Z,102148.19
2018-05-26T07:30:06.307Z,102144.84
2018-05-26T07:32:32.036Z,102151.27
2018-05-26T07:34:57.772Z,102142.78
2018-05-26T07:37:23.524Z,102140.59
2018-05-26T07:39:49.268Z,102137.17
2018-05-26T07:42:14.997Z,102133.18
2018-05-26T07:44:40.737Z,102139.49
2018-05-26T07:47:06.480Z,102142.73
2018-05-26T07:49:32.217Z,102135.19
2018-05-26T07:51:57.955Z,102144.23
2018-05-26T07:54:23.690Z,102143.66
2018-05-26T07:56:49.436Z,102146.84
2018-05-26T07:59:15.158Z,102148.25
2018-05-26T08:01:40.920Z,102148.98
2018-05-26T08:04:06.656Z,102140.67
2018-05-26T08:06:32.396Z,102145.84
2018-05-26T08:08:58.133Z,102140.58
2018-05-26T08:11:23.879Z,102141.38
2018-05-26T08:13:49.640Z,102143.66
2018-05-26T08:16:15.389Z,102140.73
2018-05-26T08:18:41.136Z,102137.09
2018-05-26T08:21:06.880Z,102138.41
2018-05-26T08:23:32.617Z,102135.35
2018-05-26T08:25:58.368Z,102139.03
2018-05-26T08:28:24.120Z,102140.88
2018-05-26T08:30:49.881Z,102136.73
2018-05-26T08:33:15.609Z,102139.20
2018-05-26T08:35:41.352Z,102135.35
2018-05-26T08:38:07.084Z,102134.77
2018-05-26T08:40:32.830Z,102133.73
2018-05-26T08:42:58.571Z,102139.28
2018-05-26T08:45:24.319Z,102145.77
2018-05-26T08:47:50.073Z,102143.25
2018-05-26T08:50:15.800Z,102140.14
2018-05-26T08:55:14.153Z,102148.05
2018-05-26T08:57:39.900Z,102145.67
2018-05-26T09:02:38.014Z,102147.09
2018-05-26T09:05:03.746Z,102143.64
2018-05-26T09:07:29.485Z,102148.89
2018-05-26T09:09:55.213Z,102150.22
2018-05-26T09:12:21.798Z,102150.05
2018-05-26T09:14:47.540Z,102144.04
2018-05-26T09:17:13.313Z,102149.67
2018-05-26T09:19:39.056Z,102134.61
2018-05-26T09:22:04.812Z,102141.97
2018-05-26T09:24:30.562Z,102136.88
2018-05-26T09:26:56.319Z,102133.61
2018-05-26T09:29:22.096Z,102141.11
2018-05-26T09:31:47.856Z,102138.38
2018-05-26T09:34:13.603Z,102132.44
2018-05-26T09:36:39.352Z,102134.83
2018-05-26T09:39:05.112Z,102141.78
2018-05-26T09:41:30.852Z,102139.91
2018-05-26T09:43:56.609Z,102136.30
2018-05-26T09:46:22.368Z,102134.18
2018-05-26T09:48:48.114Z,102132.23
2018-05-26T09:51:13.861Z,102128.89
2018-05-26T09:53:39.605Z,102131.05
2018-05-26T09:56:05.381Z,102130.77
2018-05-26T09:58:31.108Z,102127.71
2018-05-26T10:00:56.856Z,102125.67
2018-05-26T10:03:22.601Z,102140.73
2018-05-26T10:05:48.352Z,102127.64
2018-05-26T10:08:14.104Z,102127.44
2018-05-26T10:10:39.892Z,102128.77
2018-05-26T10:13:05.636Z,102130.59
2018-05-26T10:15:31.389Z,102121.45
2018-05-26T10:17:57.149Z,102127.34
2018-05-26T10:20:22.900Z,102121.30
2018-05-26T10:22:48.650Z,102118.91
2018-05-26T10:25:14.403Z,102117.92
2018-05-26T10:27:40.166Z,102118.27
2018-05-26T10:30:05.928Z,102116.77
2018-05-26T10:32:31.668Z,102118.26
2018-05-26T10:34:57.420Z,102119.48
2018-05-26T10:37:23.163Z,102118.55
2018-05-26T10:39:48.923Z,102119.23
2018-05-26T10:42:14.737Z,102118.67
2018-05-26T10:44:40.472Z,102115.69
2018-05-26T10:47:06.217Z,102119.13
2018-05-26T10:49:31.973Z,102117.99
2018-05-26T10:51:57.724Z,102114.30
2018-05-26T10:54:23.469Z,102111.19
2018-05-26T10:56:49.241Z,102112.66
2018-05-26T10:59:14.992Z,102120.59
2018-05-26T11:01:40.776Z,102122.55
2018-05-26T11:04:06.571Z,102119.16
2018-05-26T11:06:45.387Z,102115.57
2018-05-26T11:09:11.123Z,102125.00
2018-05-26T11:11:36.874Z,102128.05
2018-05-26T11:14:02.632Z,102118.64
2018-05-26T11:16:28.399Z,102126.59
2018-05-26T11:18:54.193Z,102126.99
2018-05-26T11:21:19.908Z,102126.39
2018-05-26T11:23:45.664Z,102127.38
2018-05-26T11:26:11.430Z,102126.13
2018-05-26T11:28:37.167Z,102130.72
2018-05-26T11:31:02.955Z,102135.23
2018-05-26T11:33:28.697Z,102121.80
2018-05-26T11:35:54.440Z,102130.31
2018-05-26T11:38:20.191Z,102128.52
2018-05-26T11:40:45.945Z,102132.41
2018-05-26T11:43:12.218Z,102136.81
2018-05-26T11:45:37.968Z,102132.63
2018-05-26T11:48:03.728Z,102133.06
2018-05-26T11:50:29.999Z,102145.84
2018-05-26T11:52:55.758Z,102144.59
2018-05-26T11:55:21.500Z,102142.41
2018-05-26T11:57:47.246Z,102140.03
2018-05-26T12:00:13.001Z,102137.12
2018-05-26T12:02:38.756Z,102136.66
2018-05-26T12:05:04.512Z,102136.20
2018-05-26T12:07:30.264Z,102132.84
2018-05-26T12:09:56.004Z,102134.81
2018-05-26T12:12:21.759Z,102136.19
2018-05-26T12:14:47.504Z,102129.46
2018-05-26T12:17:13.268Z,102127.95
2018-05-26T12:19:39.037Z,102130.31
2018-05-26T12:22:04.776Z,102123.89
2018-05-26T12:24:30.532Z,102128.11
2018-05-26T12:26:56.359Z,102145.50
2018-05-26T12:29:22.055Z,102142.45
2018-05-26T12:31:47.799Z,102141.23
2018-05-26T12:34:13.543Z,102146.91
2018-05-26T12:36:39.297Z,102133.50
2018-05-26T12:39:05.054Z,102132.73
2018-05-26T12:41:30.797Z,102128.94
2018-05-26T12:43:56.555Z,102127.41
2018-05-26T12:46:22.306Z,102126.69
2018-05-26T12:48:48.076Z,102134.11
2018-05-26T12:51:13.821Z,102123.86
2018-05-26T12:53:39.596Z,102120.81
2018-05-26T12:56:05.497Z,102134.70
2018-05-26T12:58:31.277Z,102123.92
2018-05-26T13:00:57.132Z,102114.98
2018-05-26T13:03:23.172Z,102121.89
2018-05-26T13:05:48.918Z,102122.48
2018-05-26T13:08:14.678Z,102125.48
2018-05-26T13:10:40.439Z,102122.89
2018-05-26T13:13:06.203Z,102116.85
2018-05-26T13:15:31.956Z,102118.60
2018-05-26T13:17:57.724Z,102121.85
2018-05-26T13:20:23.464Z,102126.61
2018-05-26T13:22:49.199Z,102127.70
2018-05-26T13:25:14.933Z,102129.36
2018-05-26T13:27:40.730Z,102125.17
2018-05-26T13:30:06.471Z,102125.11
2018-05-26T13:32:32.215Z,102125.80
2018-05-26T13:34:57.955Z,102117.11
2018-05-26T13:37:23.677Z,102116.27
2018-05-26T13:39:49.419Z,102120.38
2018-05-26T13:42:15.158Z,102123.00
2018-05-26T13:44:40.889Z,102124.61
2018-05-26T13:47:06.624Z,102125.28
2018-05-26T13:49:32.381Z,102123.42
2018-05-26T13:51:58.176Z,102114.47
2018-05-26T13:54:23.866Z,102119.48
2018-05-26T13:56:49.695Z,102115.71
2018-05-26T13:59:15.432Z,102116.34
2018-05-26T14:01:41.161Z,102117.70
2018-05-26T14:04:06.902Z,102117.07
2018-05-26T14:06:32.656Z,102111.08
2018-05-26T14:08:58.404Z,102117.34
2018-05-26T14:11:24.145Z,102115.38
2018-05-26T14:13:49.884Z,102115.16
2018-05-26T14:16:15.635Z,102104.93
2018-05-26T14:18:41.396Z,102107.27
2018-05-26T14:21:07.150Z,102103.47
2018-05-26T14:23:32.908Z,102099.34
2018-05-26T14:25:58.647Z,102101.48
2018-05-26T14:28:24.388Z,102104.36
2018-05-26T14:30:51.296Z,102102.73
2018-05-26T14:33:17.044Z,102101.70
2018-05-26T14:35:42.800Z,102110.81
2018-05-26T14:38:08.533Z,102112.00
2018-05-26T14:40:34.281Z,102111.58
2018-05-26T14:43:00.014Z,102104.89
2018-05-26T14:45:25.766Z,102118.97
2018-05-26T14:47:51.511Z,102114.73
2018-05-26T14:50:17.266Z,102115.33
2018-05-26T14:52:43.016Z,102115.48
2018-05-26T14:55:08.776Z,102115.27
2018-05-26T14:57:34.501Z,102118.90
2018-05-26T15:00:00.245Z,102121.48
2018-05-26T15:02:26.003Z,102124.23
2018-05-26T15:04:51.744Z,102114.02
2018-05-26T15:07:17.497Z,102117.98
2018-05-26T15:09:43.218Z,102117.48
2018-05-26T15:12:08.956Z,102113.80
2018-05-26T15:14:34.692Z,102113.87
2018-05-26T15:17:00.436Z,102112.16
2018-05-26T15:19:26.191Z,102110.67
2018-05-26T15:21:51.932Z,102109.36
2018-05-26T15:24:17.685Z,102112.06
2018-05-26T15:26:43.497Z,102112.11
2018-05-26T15:29:09.244Z,102113.61
2018-05-26T15:31:34.989Z,102104.66
2018-05-26T15:34:00.746Z,102105.16
2018-05-26T15:36:26.517Z,102105.73
2018-05-26T15:38:52.256Z,102113.91
2018-05-26T15:41:18.024Z,102115.56
2018-05-26T15:43:43.875Z,102112.84
2018-05-26T15:46:09.626Z,102119.66
2018-05-26T15:48:35.376Z,102111.02
2018-05-26T15:51:01.120Z,102111.66
2018-05-26T15:53:26.881Z,102110.04
2018-05-26T15:55:52.648Z,102114.56
2018-05-26T15:58:18.392Z,102116.45
2018-05-26T16:00:44.149Z,102122.39
2018-05-26T16:03:09.905Z,102116.17
2018-05-26T16:05:35.696Z,102115.13
2018-05-26T16:08:01.467Z,102114.39
2018-05-26T16:10:27.567Z,102107.55
2018-05-26T16:12:53.327Z,102106.33
2018-05-26T16:15:19.090Z,102114.24
2018-05-26T16:17:45.387Z,102110.03
2018-05-26T16:20:11.802Z,102105.66
2018-05-26T16:22:38.289Z,102115.00
2018-05-26T16:25:05.141Z,102106.14
2018-05-26T16:27:31.747Z,102110.66
2018-05-26T16:29:58.293Z,102111.00
2018-05-26T16:32:25.083Z,102101.08
2018-05-26T16:34:50.837Z,102103.63
2018-05-26T16:37:16.589Z,102104.31
2018-05-26T16:39:42.315Z,102107.77
2018-05-26T16:42:08.048Z,102103.08
2018-05-26T16:44:35.209Z,102106.53
2018-05-26T16:47:02.061Z,102103.17
2018-05-26T16:49:28.531Z,102104.02
2018-05-26T16:51:54.284Z,102111.00
2018-05-26T16:54:20.045Z,102111.84
2018-05-26T16:56:45.791Z,102114.95
2018-05-26T16:59:11.532Z,102116.83
2018-05-26T17:01:37.283Z,102119.45
2018-05-26T17:04:03.023Z,102119.53
2018-05-26T17:06:29.739Z,102117.92
2018-05-26T17:08:56.899Z,102123.36
2018-05-26T17:11:22.655Z,102117.16
2018-05-26T17:13:48.391Z,102115.03
2018-05-26T17:16:14.133Z,102109.91
2018-05-26T17:18:39.880Z,102111.91
2018-05-26T17:21:05.638Z,102110.50
2018-05-26T17:23:31.381Z,102113.11
2018-05-26T17:25:57.142Z,102103.20
2018-05-26T17:28:22.875Z,102105.61
2018-05-26T17:30:48.680Z,102105.26
2018-05-26T17:33:14.386Z,102104.17
2018-05-26T17:35:40.139Z,102103.64
2018-05-26T17:38:05.891Z,102105.48
2018-05-26T17:40:31.649Z,102101.78
2018-05-26T17:42:57.385Z,102101.48
2018-05-26T17:45:23.147Z,102099.52
2018-05-26T17:47:48.892Z,102100.42
2018-05-26T17:50:14.668Z,102096.89
2018-05-26T17:52:40.399Z,102106.36
2018-05-26T17:55:06.160Z,102104.10
2018-05-26T17:57:31.928Z,102107.87
2018-05-26T17:59:57.676Z,102105.20
2018-05-26T18:02:23.431Z,102105.95
2018-05-26T18:04:49.172Z,102101.91
2018-05-26T18:07:14.920Z,102094.73
2018-05-26T18:09:40.656Z,102096.00
2018-05-26T18:12:06.418Z,102103.78
2018-05-26T18:14:32.160Z,102094.13
2018-05-26T18:16:57.902Z,102091.56
2018-05-26T18:19:23.627Z,102091.14
2018-05-26T18:21:49.361Z,102087.59
2018-05-26T18:24:15.089Z,102095.92
2018-05-26T18:26:40.842Z,102095.10
2018-05-26T18:29:06.573Z,102100.51
2018-05-26T18:31:32.329Z,102099.34
2018-05-26T18:33:58.064Z,102101.83
2018-05-26T18:36:23.807Z,102098.47
2018-05-26T18:38:49.541Z,102091.53
2018-05-26T18:41:15.275Z,102086.69
2018-05-26T18:43:40.984Z,102090.36
2018-05-26T18:46:06.712Z,102089.22
2018-05-26T18:48:32.449Z,102089.59
2018-05-26T18:50:58.186Z,102097.37
2018-05-26T18:53:23.908Z,102095.94
2018-05-26T18:55:49.657Z,102104.02
2018-05-26T18:58:15.377Z,102102.95
2018-05-26T19:00:41.104Z,102106.92
2018-05-26T19:03:06.847Z,102115.63
2018-05-26T19:05:32.563Z,102122.25
2018-05-26T19:07:58.297Z,102122.02
2018-05-26T19:10:24.034Z,102122.57
2018-05-26T19:12:49.776Z,102132.64
2018-05-26T19:15:15.505Z,102137.98
2018-05-26T19:17:41.271Z,102141.39
2018-05-26T19:20:07.005Z,102146.41
2018-05-26T19:22:32.756Z,102140.78
2018-05-26T19:24:58.488Z,102142.41
2018-05-26T19:27:24.232Z,102143.70
2018-05-26T19:29:49.987Z,102142.37
2018-05-26T19:32:15.728Z,102151.71
2018-05-26T19:34:41.463Z,102152.49
2018-05-26T19:37:07.244Z,102149.49
2018-05-26T19:39:32.961Z,102156.64
2018-05-26T19:41:58.704Z,102156.48
2018-05-26T19:44:24.437Z,102159.23
2018-05-26T19:46:50.180Z,102164.25
2018-05-26T19:49:15.913Z,102166.36
2018-05-26T19:51:41.656Z,102166.29
2018-05-26T19:54:07.395Z,102163.70
2018-05-26T19:56:33.140Z,102164.27
2018-05-26T19:58:58.876Z,102168.14
2018-05-26T20:01:24.643Z,102175.78
2018-05-26T20:03:50.377Z,102173.38
2018-05-26T20:06:16.104Z,102170.31
2018-05-26T20:08:41.858Z,102161.63
2018-05-26T20:11:07.582Z,102167.50
2018-05-26T20:13:33.336Z,102169.20
2018-05-26T20:15:59.074Z,102162.37
2018-05-26T20:18:24.823Z,102165.05
2018-05-26T20:20:50.557Z,102162.33
2018-05-26T20:23:16.296Z,102163.40
2018-05-26T20:25:42.036Z,102178.92
2018-05-26T20:28:07.792Z,102178.17
2018-05-26T20:30:33.520Z,102179.69
2018-05-26T20:32:59.273Z,102175.55
2018-05-26T20:35:24.999Z,102178.45
2018-05-26T20:37:50.748Z,102178.77
2018-05-26T20:40:16.477Z,102180.67
2018-05-26T20:42:42.232Z,102182.56
2018-05-26T20:45:07.956Z,102180.38
2018-05-26T20:47:33.700Z,102173.41
2018-05-26T20:49:59.476Z,102177.59
2018-05-26T20:52:25.179Z,102172.14
2018-05-26T20:54:50.916Z,102169.36
2018-05-26T20:57:16.664Z,102167.89
2018-05-26T20:59:42.403Z,102167.47
2018-05-26T21:02:08.136Z,102173.17
2018-05-26T21:04:33.869Z,102169.30
2018-05-26T21:06:59.627Z,102170.37
2018-05-26T21:09:25.402Z,102173.06
2018-05-26T21:11:51.112Z,102175.64
2018-05-26T21:14:16.858Z,102175.71
2018-05-26T21:16:42.596Z,102175.89
2018-05-26T21:19:08.367Z,102173.41
2018-05-26T21:21:34.099Z,102170.24
2018-05-26T21:23:59.839Z,102167.51
2018-05-26T21:26:25.576Z,102168.33
2018-05-26T21:28:51.330Z,102168.22
2018-05-26T21:31:17.070Z,102172.48
2018-05-26T21:33:42.812Z,102164.36
2018-05-26T21:36:08.546Z,102169.27
2018-05-26T21:38:34.295Z,102170.75
2018-05-26T21:41:00.089Z,102170.95
2018-05-26T21:43:25.824Z,102165.00
2018-05-26T21:45:51.553Z,102166.55
2018-05-26T21:48:17.304Z,102166.09
2018-05-26T21:50:43.032Z,102167.09
2018-05-26T21:53:08.772Z,102173.58
2018-05-26T21:55:34.508Z,102177.48
2018-05-26T21:58:00.295Z,102180.91
2018-05-26T22:00:25.998Z,102179.86
2018-05-26T22:02:51.732Z,102175.61
2018-05-26T22:05:17.460Z,102175.45
2018-05-26T22:07:43.200Z,102163.52
2018-05-26T22:10:08.936Z,102168.25
2018-05-26T22:12:34.684Z,102165.20
2018-05-26T22:15:00.411Z,102165.88
2018-05-26T22:17:26.144Z,102165.37
2018-05-26T22:19:51.884Z,102159.27
2018-05-26T22:22:17.604Z,102155.36
2018-05-26T22:24:43.344Z,102157.27
2018-05-26T22:27:09.075Z,102156.38
2018-05-26T22:29:34.800Z,102159.85
2018-05-26T22:32:00.525Z,102160.38
2018-05-26T22:34:26.264Z,102152.37
2018-05-26T22:36:51.976Z,102150.28
2018-05-26T22:39:17.712Z,102140.89
2018-05-26T22:41:43.936Z,102139.64
2018-05-26T22:44:09.821Z,102143.02
2018-05-26T22:46:35.657Z,102146.21
2018-05-26T22:49:01.393Z,102144.70
2018-05-26T22:51:27.151Z,102142.27
2018-05-26T22:53:52.964Z,102139.73
2018-05-26T22:56:18.830Z,102144.94
2018-05-26T22:58:44.571Z,102139.87
2018-05-26T23:01:10.300Z,102140.43
2018-05-26T23:03:36.040Z,102137.38
2018-05-26T23:06:01.761Z,102144.22
2018-05-26T23:08:27.525Z,102145.67
2018-05-26T23:10:53.269Z,102144.50
2018-05-26T23:13:19.005Z,102143.20
2018-05-26T23:15:44.742Z,102144.50
2018-05-26T23:18:10.472Z,102144.78
2018-05-26T23:20:36.202Z,102147.04
2018-05-26T23:23:01.933Z,102147.03
2018-05-26T23:25:27.669Z,102148.52
2018-05-26T23:27:53.463Z,102152.15
2018-05-26T23:30:19.197Z,102149.59
2018-05-26T23:32:44.960Z,102146.48
2018-05-26T23:35:10.707Z,102147.48
2018-05-26T23:37:36.424Z,102155.11
2018-05-26T23:40:02.167Z,102148.41
2018-05-26T23:42:27.895Z,102147.52
2018-05-26T23:44:53.632Z,102142.23
2018-05-26T23:47:19.362Z,102148.45
2018-05-26T23:49:45.092Z,102152.92
2018-05-26T23:52:10.825Z,102159.81
2018-05-26T23:54:36.566Z,102158.48
2018-05-26T23:57:02.323Z,102161.33
2018-05-26T23:59:28.029Z,102150.23
